Latest Coastal Weather Observations for Bellambi

IDN60701

Issued at 1:01 am EST Monday 6 July 2015 (issued every 10 minutes, with the page automatically refreshed every 10 minutes)

About coastal observations | Map of coastal stations | Coastal observations for NSW | Marine services | Other Formats
Station Details ID: 068228 Name: BELLAMBI AWS Lat: -34.37 Lon: 150.93 Height: 10.0 m
Data from the previous 72 hours. | See also: Recent months at Bellambi
Date/Time
EST
Temp

°C
Wind Pressure Rain
since 9am
mm
Weather Cloud Vis
km
Sea
Height
m
Swell
Dir
 
Speed
knots
Gust
knots
hPa Trend Height
m
Period
s
Dir
06/01:00am 11.4 SW 8 12 - - 0.0 - - - - - - -
06/12:30am 12.0 WNW 4 8 - - 0.0 - - - - - - -
 
Date/Time
EST
Temp

°C
Wind Pressure Rain
since 9am
mm
Weather Cloud Vis
km
Sea
Height
m
Swell
Dir
 
Speed
knots
Gust
knots
hPa Trend Height
m
Period
s
Dir
05/11:30pm 12.8 SSW 4 6 - - 0.0 - - - - - - -
05/11:00pm 12.1 SW 5 11 - - 0.0 - - - - - - -
05/10:30pm 13.5 WNW 8 15 - - 0.0 - - - - - - -
05/10:00pm 12.1 WSW 5 7 - - 0.0 - - - - - - -
05/09:30pm 13.6 WSW 9 15 - - 0.0 - - - - - - -
05/09:00pm 13.9 WNW 7 11 - - 0.0 - - - - - - -
05/08:30pm 13.4 NNW 8 10 - - 0.0 - - - - - - -
05/08:00pm 13.2 NW 10 13 - - 0.0 - - - - - - -
05/07:30pm 13.0 NW 9 12 - - 0.0 - - - - - - -
05/07:00pm 12.9 NW 8 10 - - 0.0 - - - - - - -
05/06:30pm 12.9 NW 6 8 - - 0.0 - - - - - - -
05/06:00pm 13.6 NW 5 7 - - 0.0 - - - - - - -
05/05:30pm 13.3 NW 2 4 - - 0.0 - - - - - - -
05/05:00pm 14.1 NW 4 5 - - 0.0 - - - - - - -
05/04:30pm 15.6 NW 5 6 - - 0.0 - - - - - - -
05/04:00pm 16.2 N 7 9 - - 0.0 - - - - - - -
05/03:30pm 16.8 NNE 8 9 - - 0.0 - - - - - - -
05/03:00pm 17.0 NE 8 10 - - 0.0 - - - - - - -
05/02:30pm 17.4 NE 8 9 - - 0.0 - - - - - - -
05/02:00pm 17.2 ENE 7 9 - - 0.0 - - - - - - -
05/01:30pm 17.1 E 8 9 - - 0.0 - - - - - - -
05/01:00pm 17.0 E 7 8 - - 0.0 - - - - - - -
05/12:30pm 16.8 ENE 7 8 - - 0.0 - - - - - - -
05/12:00pm 17.5 NE 6 8 - - 0.0 - - - - - - -
05/11:30am 17.2 NNE 5 9 - - 0.0 - - - - - - -
05/11:00am 16.2 ENE 4 6 - - 0.0 - - - - - - -
05/10:30am 16.0 NNE 3 4 - - 0.0 - - - - - - -
05/10:00am 15.6 N 4 5 - - 0.0 - - - - - - -
05/09:30am 14.8 NNW 3 4 - - 0.0 - - - - - - -
05/09:00am 12.8 WNW 2 5 - - 0.0 - - - - - - -
05/08:30am 11.5 WNW 4 5 - - 0.0 - - - - - - -
05/08:00am 10.3 NW 3 5 - - 0.0 - - - - - - -
05/07:30am 9.3 NW 5 7 - - 0.0 - - - - - - -
05/07:00am 8.7 NW 5 6 - - 0.0 - - - - - - -
05/06:30am 8.8 NW 7 10 - - 0.0 - - - - - - -
05/06:00am 8.8 NNW 5 6 - - 0.0 - - - - - - -
05/05:30am 8.6 NW 3 5 - - 0.0 - - - - - - -
05/05:00am 9.2 CALM 0 3 - - 0.0 - - - - - - -
05/04:30am 9.3 CALM 0 0 - - 0.0 - - - - - - -
05/04:00am 9.0 WNW 3 5 - - 0.0 - - - - - - -
05/03:30am 9.0 WNW 5 6 - - 0.0 - - - - - - -
05/03:00am 8.9 WNW 5 5 - - 0.0 - - - - - - -
05/02:30am 8.9 WNW 5 6 - - 0.0 - - - - - - -
05/02:00am 8.9 NW 4 6 - - 0.0 - - - - - - -
05/01:30am 8.9 NW 6 7 - - 0.0 - - - - - - -
05/01:00am 9.1 WNW 8 10 - - 0.0 - - - - - - -
05/12:30am 8.9 NW 6 8 - - 0.0 - - - - - - -
05/12:00am 8.7 NW 6 8 - - 0.0 - - - - - - -
 
Date/Time
EST
Temp

°C
Wind Pressure Rain
since 9am
mm
Weather Cloud Vis
km
Sea
Height
m
Swell
Dir
 
Speed
knots
Gust
knots
hPa Trend Height
m
Period
s
Dir
04/11:30pm 8.8 WNW 4 5 - - 0.0 - - - - - - -
04/11:00pm 9.0 NW 4 5 - - 0.0 - - - - - - -
04/10:30pm 9.1 W 5 6 - - 0.0 - - - - - - -
04/10:00pm 9.4 WNW 4 5 - - 0.0 - - - - - - -
04/09:30pm 10.0 WNW 4 5 - - 0.0 - - - - - - -
04/09:00pm 10.2 W 6 9 - - 0.0 - - - - - - -
04/08:30pm 9.7 WNW 5 6 - - 0.0 - - - - - - -
04/08:00pm 10.4 WNW 4 6 - - 0.0 - - - - - - -
04/07:30pm 10.6 WSW 7 8 - - 0.0 - - - - - - -
04/07:00pm 10.8 W 4 7 - - 0.0 - - - - - - -
04/06:30pm 11.1 WNW 6 8 - - 0.0 - - - - - - -
04/06:00pm 11.7 W 8 11 - - 0.0 - - - - - - -
04/05:30pm 10.7 WNW 5 6 - - 0.0 - - - - - - -
04/05:00pm 11.6 W 4 6 - - 0.0 - - - - - - -
04/04:30pm 14.3 CALM 0 3 - - 0.0 - - - - - - -
04/04:00pm 14.1 S 6 8 - - 0.0 - - - - - - -
04/03:30pm 14.3 S 8 10 - - 0.0 - - - - - - -
04/03:00pm 14.9 SW 5 8 - - 0.0 - - - - - - -
04/02:30pm 14.5 SSW 8 10 - - 0.0 - - - - - - -
04/02:00pm 14.3 S 9 12 - - 0.0 - - - - - - -
04/01:30pm 14.2 SSW 11 13 - - 0.0 - - - - - - -
04/01:00pm 13.9 S 9 12 - - 0.0 - - - - - - -
04/12:30pm 13.3 S 7 10 - - 0.0 - - - - - - -
04/12:00pm 13.2 SSE 6 7 - - 0.0 - - - - - - -
04/11:30am 12.9 SSW 5 8 - - 0.0 - - - - - - -
04/11:00am 12.3 WSW 6 9 - - 0.0 - - - - - - -
04/10:30am 11.6 NW 9 12 - - 0.0 - - - - - - -
04/10:00am 10.2 WNW 7 12 - - 0.0 - - - - - - -
04/09:30am 9.8 WNW 7 10 - - 0.0 - - - - - - -
04/09:00am 8.6 WNW 7 12 - - 0.0 - Cloudy - - - - -
04/08:30am 8.1 WSW 7 10 - - 0.0 - - - - - - -
04/08:00am 8.0 WSW 9 13 - - 0.0 - - - - - - -
04/07:30am 8.0 SW 11 15 - - 0.0 - - - - - - -
04/07:00am 7.5 SW 8 10 - - 0.0 - - - - - - -
04/06:30am 8.1 W 5 8 - - 0.0 - - - - - - -
04/06:00am 8.2 WNW 7 10 - - 0.0 - Mostly cloudy - - - - -
04/05:30am 6.9 NW 3 6 - - 0.0 - - - - - - -
04/05:00am 6.9 CALM 0 3 - - 0.0 - - - - - - -
04/04:30am 7.2 NNW 4 5 - - 0.0 - - - - - - -
04/04:00am 6.4 SSW 1 4 - - 0.0 - - - - - - -
04/03:30am 6.7 NW 4 6 - - 0.0 - - - - - - -
04/03:00am 6.6 WNW 7 8 - - 0.0 - Mostly cloudy - - - - -
04/02:30am 7.2 NW 3 5 - - 0.0 - - - - - - -
04/02:00am 7.5 NNW 5 6 - - 0.0 - - - - - - -
04/01:30am 6.9 CALM 0 0 - - 0.0 - - - - - - -
04/01:00am 6.8 SW 2 5 - - 0.0 - - - - - - -
04/12:30am 7.4 CALM 0 0 - - 0.0 - - - - - - -
04/12:00am 7.5 NW 4 6 - - 0.0 - - - - - - -
 
Date/Time
EST
Temp

°C
Wind Pressure Rain
since 9am
mm
Weather Cloud Vis
km
Sea
Height
m
Swell
Dir
 
Speed
knots
Gust
knots
hPa Trend Height
m
Period
s
Dir
03/11:30pm 8.6 NNW 4 6 - - 0.0 - - - - - - -
03/11:00pm 8.3 NW 7 9 - - 0.0 - - - - - - -
03/10:30pm 7.7 W 7 8 - - 0.0 - - - - - - -
03/10:00pm 7.7 W 7 8 - - 0.0 - - - - - - -
03/09:30pm 7.5 W 5 7 - - 0.0 - - - - - - -
03/09:00pm 7.8 WNW 5 5 - - 0.0 - - - - - - -
03/08:30pm 7.7 W 4 5 - - 0.0 - - - - - - -
03/08:00pm 8.2 W 5 5 - - 0.0 - - - - - - -
03/07:30pm 9.0 W 5 5 - - 0.0 - - - - - - -
03/07:00pm 8.8 W 6 7 - - 0.0 - - - - - - -
03/06:30pm 9.0 W 5 6 - - 0.0 - - - - - - -
03/06:00pm 9.5 WSW 5 6 - - 0.0 - - - - - - -
03/05:30pm 10.6 W 4 6 - - 0.0 - - - - - - -
03/05:00pm 12.1 SSE 6 9 - - 0.0 - - - - - - -
03/04:30pm 12.5 SSE 7 10 - - 0.0 - - - - - - -
03/04:00pm 12.7 SSE 9 13 - - 0.0 - - - - - - -
03/03:30pm 13.0 SSE 9 13 - - 0.0 - - - - - - -
03/03:00pm 13.2 SSE 10 13 - - 0.0 - Mostly clear - - - - -
03/02:30pm 13.3 SSE 11 13 - - 0.0 - Partly cloudy - - - - -
03/02:00pm 13.5 SSE 10 13 - - 0.0 - Partly cloudy - - - - -
03/01:30pm 13.6 SSE 8 11 - - 0.0 - - - - - - -
03/01:00pm 13.5 S 9 12 - - 0.0 - - - - - - -
03/12:30pm 13.2 SSW 10 14 - - 0.0 - - - - - - -
03/12:00pm 13.4 SSW 11 16 - - 0.0 - - - - - - -
03/11:30am 13.2 SSW 13 17 - - 0.0 - - - - - - -
03/11:00am 12.9 SSW 13 17 - - 0.0 - - - - - - -
03/10:30am 12.7 SW 13 19 - - 0.0 - - - - - - -
03/10:00am 12.3 SW 13 16 - - 0.0 - - - - - - -
03/09:30am 11.9 SW 12 16 - - 0.0 - - - - - - -
03/09:00am 11.3 SW 11 15 - - 0.0 - - - - - - -
03/08:30am 10.7 SW 10 14 - - 0.0 - - - - - - -
03/08:00am 9.7 SW 9 12 - - 0.0 - - - - - - -
03/07:30am 8.9 SW 9 11 - - 0.0 - - - - - - -
03/07:00am 8.5 SW 9 15 - - 0.0 - - - - - - -
03/06:30am 8.4 SW 9 13 - - 0.0 - - - - - - -
03/06:00am 8.2 WSW 8 10 - - 0.0 - - - - - - -
03/05:30am 9.1 WSW 9 13 - - 0.0 - - - - - - -
03/05:00am 9.0 WSW 9 12 - - 0.0 - - - - - - -
03/04:30am 9.1 SW 12 15 - - 0.0 - - - - - - -
03/04:00am 8.8 SW 11 15 - - 0.0 - - - - - - -
03/03:30am 8.9 SW 11 15 - - 0.0 - - - - - - -
03/03:00am 8.9 SW 11 15 - - 0.0 - - - - - - -
03/02:30am 9.0 SW 11 15 - - 0.0 - - - - - - -
03/02:00am 9.1 SW 11 15 - - 0.0 - - - - - - -
03/01:30am 9.4 SW 14 19 - - 0.0 - - - - - - -

Other Formats:

Comma delimited format used in spreadsheet applications
http://www.bom.gov.au/fwo/IDN60701/IDN60701.94749.axf

JavaScript Object Notation format (JSON) in row-major order
http://www.bom.gov.au/fwo/IDN60701/IDN60701.94749.json